Time;durP1;ratioP1;P1;durP2;ratioP2;P2;SDS_P1;SDS_P2;PMS_P1;PMS_P2;Temp;Humidity;BMP_temperature;BMP_pressure;BME280_temperature;BME280_humidity;BME280_pressure;Samples;Min_cycle;Max_cycle;Signal;HPM_P1;HPM_P2
2022/09/01 00:00:50;;;;;;;4.80;1.38;;;;;;;18.32;48.69;101950.06;5253850;28;20128;-69
2022/09/01 00:03:24;;;;;;;7.00;1.52;;;;;;;18.24;48.78;101951.66;5258066;28;20422;-69
2022/09/01 00:05:55;;;;;;;2.75;1.30;;;;;;;18.19;49.52;101953.13;5240386;28;20016;-69
2022/09/01 00:08:27;;;;;;;4.03;1.33;;;;;;;18.25;49.04;101949.84;5258703;28;20052;-71
2022/09/01 00:10:58;;;;;;;3.15;1.15;;;;;;;18.22;48.99;101940.38;5257255;28;20375;-71
2022/09/01 00:13:32;;;;;;;2.22;1.10;;;;;;;18.24;49.68;101951.66;5256346;28;20020;-70
2022/09/01 00:16:03;;;;;;;5.97;1.20;;;;;;;18.12;50.36;101939.63;5258288;28;20031;-70
2022/09/01 00:18:34;;;;;;;5.68;1.50;;;;;;;18.15;50.68;101949.13;5257693;28;20017;-70
2022/09/01 00:21:06;;;;;;;4.03;1.10;;;;;;;18.20;51.09;101942.34;5257614;28;20099;-70
2022/09/01 00:23:38;;;;;;;3.65;1.20;;;;;;;18.10;50.98;101935.47;5239506;28;20083;-71
2022/09/01 00:26:09;;;;;;;3.90;1.15;;;;;;;18.07;51.59;101941.06;5258589;28;20113;-71
2022/09/01 00:28:41;;;;;;;2.80;1.00;;;;;;;18.08;51.84;101940.09;5257589;28;20043;-71
2022/09/01 00:31:17;;;;;;;4.15;1.10;;;;;;;18.06;52.60;101940.22;5256271;28;20024;-70
2022/09/01 00:33:49;;;;;;;4.90;1.30;;;;;;;17.93;53.33;101947.75;5257580;28;20029;-71
2022/09/01 00:36:21;;;;;;;4.37;1.00;;;;;;;17.92;53.94;101948.75;5239363;28;20127;-70
2022/09/01 00:38:53;;;;;;;3.45;1.30;;;;;;;17.90;54.16;101945.41;5257813;28;20115;-71
2022/09/01 00:41:28;;;;;;;3.10;1.08;;;;;;;17.98;54.68;101942.81;5257234;28;20049;-71
2022/09/01 00:44:04;;;;;;;3.75;1.10;;;;;;;17.79;55.66;101949.09;5252515;28;20048;-71
2022/09/01 00:46:48;;;;;;;3.58;1.50;;;;;;;17.95;55.14;101943.94;5242989;28;20134;-71
2022/09/01 00:49:25;;;;;;;;;;;;;;;18.44;52.10;101940.88;5257520;28;20395;-70
2022/09/01 00:52:23;;;;;;;4.07;1.20;;;;;;;17.89;55.86;101947.22;5253236;28;19928;-70
2022/09/01 00:54:58;;;;;;;1.80;0.90;;;;;;;17.81;56.84;101944.50;5256435;28;20104;-71
2022/09/01 00:57:29;;;;;;;2.10;0.98;;;;;;;17.74;57.23;101941.56;5254125;28;20395;-70
2022/09/01 01:00:14;;;;;;;3.42;1.10;;;;;;;17.78;57.85;101944.78;5255514;28;20033;-70
2022/09/01 01:02:47;;;;;;;3.05;1.25;;;;;;;17.63;58.61;101943.59;5254798;28;20021;-71
2022/09/01 01:05:20;;;;;;;3.50;1.40;;;;;;;17.59;59.00;101939.59;5238639;28;20048;-70
2022/09/01 01:07:51;;;;;;;;;;;;;;;18.25;55.77;101941.88;5257960;28;20487;-70
2022/09/01 01:10:25;;;;;;;4.50;1.40;;;;;;;17.62;59.00;101936.66;5237580;28;19916;-71
2022/09/01 01:12:59;;;;;;;3.78;1.10;;;;;;;17.55;59.65;101936.41;5253546;28;20075;-70
2022/09/01 01:15:31;;;;;;;1.90;1.35;;;;;;;17.55;59.85;101930.28;5237459;28;20033;-71
2022/09/01 01:18:02;;;;;;;4.60;1.27;;;;;;;17.54;60.22;101932.09;5257435;28;20086;-71
2022/09/01 01:23:35;;;;;;;4.10;1.60;;;;;;;17.47;60.96;101931.84;5253924;28;20037;-70
2022/09/01 01:26:09;;;;;;;3.78;1.23;;;;;;;17.40;61.35;101932.59;5253452;28;20100;-70
2022/09/01 01:28:43;;;;;;;2.10;1.20;;;;;;;17.37;61.64;101928.41;5256578;28;20051;-70
2022/09/01 01:31:17;;;;;;;5.03;1.40;;;;;;;17.39;61.65;101930.94;5256461;28;20025;-70
2022/09/01 01:33:52;;;;;;;3.40;1.48;;;;;;;17.30;62.20;101916.75;5254977;28;20029;-70
2022/09/01 01:36:35;;;;;;;4.15;1.60;;;;;;;17.32;62.66;101924.56;5237636;28;20026;-70
2022/09/01 01:39:13;;;;;;;4.22;1.67;;;;;;;17.29;63.17;101928.31;5238557;28;20017;-70
2022/09/01 01:41:47;;;;;;;3.95;1.63;;;;;;;17.15;63.76;101929.63;5255332;28;20031;-70
2022/09/01 01:44:23;;;;;;;3.47;1.63;;;;;;;17.22;64.11;101936.00;5236696;28;20025;-70
2022/09/01 01:46:56;;;;;;;2.25;1.42;;;;;;;17.07;64.59;101924.25;5255674;28;20065;-70
2022/09/01 01:49:27;;;;;;;3.47;1.37;;;;;;;17.15;64.05;101934.94;5256175;28;20031;-70
2022/09/01 01:52:00;;;;;;;3.92;1.20;;;;;;;17.15;64.38;101934.94;5255049;28;20279;-71
2022/09/01 01:54:31;;;;;;;3.90;1.40;;;;;;;17.16;64.39;101936.63;5254349;28;20040;-70
2022/09/01 01:57:07;;;;;;;3.45;1.40;;;;;;;17.08;65.39;101933.84;5256159;28;20291;-71
2022/09/01 01:59:39;;;;;;;4.13;1.95;;;;;;;16.99;66.01;101940.03;5255995;28;20017;-74
2022/09/01 02:02:11;;;;;;;3.90;1.50;;;;;;;17.05;65.65;101939.47;5252418;28;20032;-72
2022/09/01 02:04:42;;;;;;;5.65;1.25;;;;;;;16.96;66.47;101941.13;5259033;22;20143;-68
2022/09/01 02:07:15;;;;;;;4.47;1.50;;;;;;;16.97;66.82;101940.19;5233045;28;20029;-69
2022/09/01 02:09:47;;;;;;;3.50;1.60;;;;;;;16.94;66.73;101937.00;5235686;28;20061;-68
2022/09/01 02:12:18;;;;;;;7.22;1.40;;;;;;;16.97;66.51;101944.63;5234760;28;20045;-68
2022/09/01 02:14:49;;;;;;;2.83;1.48;;;;;;;16.84;67.29;101937.00;5254007;28;20098;-68
2022/09/01 02:17:21;;;;;;;4.43;1.65;;;;;;;16.92;67.33;101936.28;5255970;28;20021;-68
2022/09/01 02:19:56;;;;;;;3.33;1.58;;;;;;;16.93;66.97;101940.59;5255685;28;20104;-68
2022/09/01 02:22:27;;;;;;;2.78;1.50;;;;;;;16.78;67.83;101937.56;5259994;28;20086;-68
2022/09/01 02:24:59;;;;;;;3.95;1.35;;;;;;;16.73;68.14;101935.38;5277372;28;20501;-68
2022/09/01 02:27:34;;;;;;;3.73;1.40;;;;;;;16.77;68.44;101936.75;5248288;28;20109;-69
2022/09/01 02:30:09;;;;;;;3.92;1.55;;;;;;;16.71;68.57;101931.19;5276687;28;20357;-69
2022/09/01 02:32:40;;;;;;;3.90;1.35;;;;;;;16.66;69.10;101936.88;5276041;28;20530;-68
2022/09/01 02:35:12;;;;;;;2.63;1.33;;;;;;;16.65;68.92;101937.88;5277059;28;20016;-68
2022/09/01 02:37:44;;;;;;;4.82;1.90;;;;;;;16.68;69.23;101936.75;5262459;28;20455;-69
2022/09/01 02:40:16;;;;;;;3.78;1.60;;;;;;;16.66;69.53;101939.53;5280479;28;20020;-69
2022/09/01 02:42:47;;;;;;;5.63;1.63;;;;;;;16.61;69.75;101941.78;5280953;28;20036;-69
2022/09/01 02:45:19;;;;;;;3.85;1.67;;;;;;;16.51;70.36;101930.38;5279960;28;20020;-69
2022/09/01 02:47:52;;;;;;;4.18;1.40;;;;;;;16.58;70.06;101934.13;5280824;28;20031;-69
2022/09/01 02:50:25;;;;;;;4.07;1.67;;;;;;;16.48;70.68;101933.31;5281183;28;20020;-69
2022/09/01 02:53:00;;;;;;;4.50;1.60;;;;;;;16.48;70.93;101935.97;5280246;28;20032;-68
2022/09/01 02:55:31;;;;;;;2.63;1.17;;;;;;;16.43;71.28;101920.50;5279720;28;20523;-68
2022/09/01 02:58:03;;;;;;;4.55;1.92;;;;;;;16.49;71.34;101929.69;5281046;28;20114;-68
2022/09/01 03:00:38;;;;;;;2.50;1.25;;;;;;;16.38;71.74;101929.84;5280741;28;20025;-69
2022/09/01 03:03:20;;;;;;;4.95;1.50;;;;;;;16.38;71.49;101920.09;5283510;28;20086;-69
2022/09/01 03:05:54;;;;;;;3.05;1.58;;;;;;;16.32;72.16;101914.53;5300801;28;20489;-68
2022/09/01 03:08:26;;;;;;;4.38;1.52;;;;;;;16.34;72.13;101917.88;5302271;28;20024;-68
2022/09/01 03:11:00;;;;;;;4.43;1.77;;;;;;;16.34;72.15;101917.88;5302118;28;20035;-69
2022/09/01 03:13:31;;;;;;;3.53;1.67;;;;;;;16.36;72.34;101922.03;5300236;28;20302;-68
2022/09/01 03:16:03;;;;;;;4.40;2.10;;;;;;;16.23;72.77;101916.22;5301102;28;20471;-68
2022/09/01 03:18:35;;;;;;;4.80;1.90;;;;;;;16.27;72.51;101914.97;5302038;28;20481;-68
2022/09/01 03:21:08;;;;;;;4.72;1.70;;;;;;;16.25;72.32;101919.56;5301433;28;20051;-68
2022/09/01 03:23:40;;;;;;;2.80;1.60;;;;;;;16.09;73.03;101906.91;5300862;28;20062;-68
2022/09/01 03:26:13;;;;;;;4.72;1.65;;;;;;;16.23;73.15;101924.16;5301963;28;20031;-69
2022/09/01 03:28:45;;;;;;;3.72;1.58;;;;;;;16.15;72.71;101924.03;5301347;28;20031;-69
2022/09/01 03:31:18;;;;;;;10.68;2.08;;;;;;;16.18;72.94;101929.88;5301214;28;20032;-68
2022/09/01 03:33:50;;;;;;;4.05;1.50;;;;;;;16.08;73.70;101920.28;5300844;28;20127;-68
2022/09/01 03:36:26;;;;;;;6.18;1.70;;;;;;;16.12;74.28;101922.50;5300534;28;20103;-68
2022/09/01 03:38:58;;;;;;;5.32;2.25;;;;;;;15.97;74.62;101919.44;5300233;28;20028;-69
2022/09/01 03:41:30;;;;;;;4.38;1.92;;;;;;;15.99;74.57;101920.16;5301378;28;20016;-68
2022/09/01 03:44:01;;;;;;;5.53;1.60;;;;;;;15.98;74.78;101923.75;5299616;28;20032;-68
2022/09/01 03:46:33;;;;;;;4.10;1.70;;;;;;;15.97;74.44;101923.88;5299044;28;20543;-68
2022/09/01 03:49:06;;;;;;;3.45;1.73;;;;;;;16.01;74.33;101914.72;5300774;28;20486;-68
2022/09/01 03:51:38;;;;;;;3.53;1.58;;;;;;;15.92;74.79;101902.34;5300838;28;20516;-68
2022/09/01 03:54:10;;;;;;;3.92;1.67;;;;;;;15.89;75.60;101918.47;5299866;28;20036;-68
2022/09/01 03:56:42;;;;;;;4.95;1.80;;;;;;;15.93;74.41;101914.56;5301272;28;20035;-69
2022/09/01 03:59:15;;;;;;;3.00;1.60;;;;;;;15.91;75.29;101906.78;5300686;28;20107;-68
2022/09/01 04:01:47;;;;;;;3.05;1.50;;;;;;;15.93;74.91;101911.94;5299887;28;20027;-68
2022/09/01 04:04:18;;;;;;;5.15;1.73;;;;;;;15.85;75.30;101909.97;5298078;28;20406;-68
2022/09/01 04:06:49;;;;;;;5.85;1.63;;;;;;;15.81;75.32;101906.78;5299342;28;20046;-67
2022/09/01 04:09:21;;;;;;;3.70;1.77;;;;;;;15.80;75.44;101910.41;5301111;28;20024;-67
2022/09/01 04:11:53;;;;;;;5.55;2.17;;;;;;;15.75;76.42;101906.50;5300058;28;20492;-68
2022/09/01 04:14:26;;;;;;;3.50;1.80;;;;;;;15.78;76.24;101912.34;5300199;28;20363;-68
2022/09/01 04:19:47;;;;;;;2.55;1.67;;;;;;;15.69;76.90;101915.81;5299538;28;20064;-68
2022/09/01 04:22:19;;;;;;;3.45;1.77;;;;;;;15.70;77.20;101906.91;5300134;28;20052;-68
2022/09/01 04:24:51;;;;;;;5.27;2.00;;;;;;;15.74;76.82;101910.94;5301124;28;20039;-68
2022/09/01 04:27:25;;;;;;;4.03;1.80;;;;;;;15.69;77.13;101910.53;5300743;28;20470;-68
2022/09/01 04:29:57;;;;;;;3.47;1.77;;;;;;;15.71;77.35;101913.84;5299601;28;20020;-68
2022/09/01 04:32:28;;;;;;;5.07;1.90;;;;;;;15.69;77.20;101913.16;5300226;28;20026;-68
2022/09/01 04:35:00;;;;;;;4.82;2.10;;;;;;;15.74;76.80;101910.09;5299557;28;20512;-68
2022/09/01 04:37:35;;;;;;;4.40;2.08;;;;;;;15.73;76.79;101919.84;5300112;28;20032;-68
2022/09/01 04:40:07;;;;;;;5.07;1.80;;;;;;;15.75;76.55;101917.88;5281872;28;20106;-68
2022/09/01 04:42:38;;;;;;;4.65;2.00;;;;;;;15.65;77.19;101914.41;5300022;28;20034;-68
2022/09/01 04:45:10;;;;;;;4.78;1.70;;;;;;;15.69;76.67;101918.47;5299181;28;20381;-68
2022/09/01 04:47:41;;;;;;;3.80;1.85;;;;;;;15.70;76.45;101920.13;5299728;28;20024;-68
2022/09/01 04:50:16;;;;;;;3.78;1.88;;;;;;;15.70;76.24;101919.28;5299074;28;20115;-68
2022/09/01 04:52:47;;;;;;;5.60;2.28;;;;;;;15.66;76.44;101915.25;5299628;28;20032;-68
2022/09/01 04:55:18;;;;;;;3.95;1.70;;;;;;;15.64;76.05;101915.34;5299795;28;20032;-68
2022/09/01 04:57:50;;;;;;;2.78;1.60;;;;;;;15.62;76.14;101912.00;5298843;28;20016;-68
2022/09/01 05:00:23;;;;;;;5.38;1.75;;;;;;;15.61;75.49;101920.06;5299503;28;20019;-68
2022/09/01 05:03:03;;;;;;;3.55;1.70;;;;;;;15.61;75.53;101920.91;5298923;28;20027;-68
2022/09/01 05:05:38;;;;;;;3.70;1.83;;;;;;;15.58;75.65;101918.53;5299086;28;20020;-68
2022/09/01 05:08:16;;;;;;;11.50;1.95;;;;;;;15.62;76.00;101917.28;5299836;28;20031;-68
2022/09/01 05:10:51;;;;;;;3.67;1.98;;;;;;;15.57;75.73;101920.34;5299915;28;20051;-68
2022/09/01 05:13:23;;;;;;;5.07;1.83;;;;;;;15.51;76.40;101920.06;5298869;28;20398;-68
2022/09/01 05:16:11;;;;;;;4.97;1.98;;;;;;;15.62;75.81;101922.59;5298888;28;20081;-68
2022/09/01 05:18:46;;;;;;;5.68;2.03;;;;;;;15.45;76.21;101923.22;5300309;28;20096;-68
2022/09/01 05:21:21;;;;;;;5.60;1.77;;;;;;;15.45;76.37;101923.22;5298032;28;20498;-68
2022/09/01 05:23:53;;;;;;;3.67;2.10;;;;;;;15.43;76.08;101917.25;5298709;28;20394;-68
2022/09/01 05:26:30;;;;;;;3.07;1.53;;;;;;;15.51;76.23;101920.06;5300065;28;20028;-68
2022/09/01 05:29:09;;;;;;;5.20;1.80;;;;;;;15.45;76.26;101928.50;5298445;28;20062;-68
2022/09/01 05:31:41;;;;;;;8.18;2.10;;;;;;;15.38;76.26;101922.97;5299433;28;20077;-68
2022/09/01 05:34:14;;;;;;;5.20;1.70;;;;;;;15.47;76.02;101922.13;5299047;28;20486;-69
2022/09/01 05:36:49;;;;;;;4.10;1.85;;;;;;;15.49;75.70;101925.50;5297596;28;20085;-68
2022/09/01 05:39:20;;;;;;;4.85;1.92;;;;;;;15.43;75.88;101931.31;5299807;28;20024;-69
2022/09/01 05:41:52;;;;;;;2.80;1.80;;;;;;;15.48;75.72;101928.25;5299055;28;20020;-69
2022/09/01 05:44:24;;;;;;;4.53;1.90;;;;;;;15.58;75.27;101922.00;5299822;28;20020;-68
2022/09/01 05:46:58;;;;;;;5.63;2.42;;;;;;;15.56;75.67;101923.94;5298611;28;20500;-68
2022/09/01 05:49:31;;;;;;;6.90;2.47;;;;;;;15.50;75.39;101927.16;5298849;28;20470;-68
2022/09/01 05:52:03;;;;;;;3.65;2.10;;;;;;;15.51;75.14;101925.34;5297783;28;20055;-69
2022/09/01 05:54:34;;;;;;;3.75;2.05;;;;;;;15.56;74.93;101926.59;5297494;28;20074;-68
2022/09/01 05:57:06;;;;;;;4.60;2.00;;;;;;;15.59;74.82;101930.78;5298213;28;20026;-68
2022/09/01 05:59:39;;;;;;;5.03;1.95;;;;;;;15.63;75.39;101931.34;5298511;28;20058;-68
2022/09/01 06:02:11;;;;;;;3.47;2.00;;;;;;;15.63;75.39;101934.81;5297795;28;20077;-68
2022/09/01 06:04:42;;;;;;;6.63;2.25;;;;;;;15.65;74.59;101932.06;5298030;28;20406;-68
2022/09/01 06:07:16;;;;;;;6.03;1.80;;;;;;;15.65;75.02;101932.91;5298454;28;20028;-68
2022/09/01 06:09:48;;;;;;;6.15;1.90;;;;;;;15.66;74.71;101939.84;5298612;28;20123;-68
2022/09/01 06:12:22;;;;;;;7.50;1.80;;;;;;;15.70;74.08;101940.41;5298014;28;20038;-68
2022/09/01 06:14:54;;;;;;;10.07;2.47;;;;;;;15.71;74.30;101939.44;5298287;28;20031;-68
2022/09/01 06:17:28;;;;;;;8.70;2.10;;;;;;;15.76;74.83;101939.88;5298260;28;20371;-68
2022/09/01 06:20:00;;;;;;;4.68;1.95;;;;;;;15.69;73.56;101933.47;5268738;28;20481;-69
2022/09/01 06:22:33;;;;;;;6.45;2.10;;;;;;;15.78;73.57;101940.56;5298567;28;20077;-68
2022/09/01 06:25:07;;;;;;;4.80;2.05;;;;;;;15.84;72.73;101942.66;5298423;28;20069;-68
2022/09/01 06:27:41;;;;;;;7.07;2.15;;;;;;;15.82;72.73;101937.50;5298644;28;20032;-68
2022/09/01 06:30:19;;;;;;;5.93;1.92;;;;;;;15.86;72.58;101937.22;5298595;28;20509;-68
2022/09/01 06:32:52;;;;;;;7.95;2.08;;;;;;;15.97;73.20;101947.69;5298756;28;20028;-67
2022/09/01 06:35:28;;;;;;;9.20;2.42;;;;;;;15.98;72.25;101939.59;5298444;28;20024;-68
2022/09/01 06:38:00;;;;;;;5.38;2.53;;;;;;;16.09;71.25;101940.44;5298958;28;20093;-67
2022/09/01 06:40:34;;;;;;;4.97;2.05;;;;;;;16.24;72.30;101950.44;5296210;28;20033;-67
2022/09/01 06:43:07;;;;;;;5.88;1.92;;;;;;;16.28;71.17;101943.06;5296676;28;20028;-68
2022/09/01 06:45:48;;;;;;;5.93;1.77;;;;;;;16.49;70.57;101949.03;5298412;28;20028;-68
2022/09/01 06:48:22;;;;;;;7.35;2.10;;;;;;;16.57;70.09;101940.41;5297827;28;20107;-67
2022/09/01 06:50:53;;;;;;;5.93;2.00;;;;;;;16.67;69.36;101945.69;5297439;28;20488;-68
2022/09/01 06:53:25;;;;;;;4.47;2.17;;;;;;;16.75;69.40;101944.00;5297189;28;20041;-68
2022/09/01 06:55:57;;;;;;;6.28;2.75;;;;;;;16.90;68.54;101941.75;5296665;28;20042;-68
2022/09/01 06:58:29;;;;;;;6.60;2.05;;;;;;;17.08;68.64;101949.72;5297833;28;20027;-68
2022/09/01 07:01:07;;;;;;;8.15;2.22;;;;;;;17.22;67.05;101946.59;5297864;28;20035;-68
2022/09/01 07:03:38;;;;;;;5.90;2.13;;;;;;;17.31;68.06;101949.34;5296529;28;20529;-68
2022/09/01 07:06:13;;;;;;;5.82;2.35;;;;;;;17.48;67.30;101949.41;5296448;28;20020;-68
2022/09/01 07:08:48;;;;;;;4.95;1.95;;;;;;;17.59;66.64;101956.31;5297984;28;20153;-68
2022/09/01 07:11:26;;;;;;;5.07;2.30;;;;;;;17.63;65.32;101967.47;5297373;28;20031;-68
2022/09/01 07:14:03;;;;;;;9.63;2.45;;;;;;;17.67;63.91;101966.16;5296256;28;20074;-68
2022/09/01 07:16:39;;;;;;;4.60;2.30;;;;;;;17.73;64.10;101965.59;5296539;28;20069;-68
2022/09/01 07:19:14;;;;;;;9.05;2.58;;;;;;;17.91;65.12;101963.78;5297837;28;20661;-68
2022/09/01 07:21:46;;;;;;;6.03;2.28;;;;;;;18.02;64.57;101964.56;5298619;28;20152;-68
2022/09/01 07:24:19;;;;;;;8.20;2.13;;;;;;;18.24;64.43;101970.22;5300066;28;20501;-68
2022/09/01 07:26:51;;;;;;;3.40;1.65;;;;;;;18.39;62.59;101964.38;5302092;28;20024;-68
2022/09/01 07:29:24;;;;;;;6.03;2.58;;;;;;;18.41;62.54;101959.75;5301293;28;20089;-68
2022/09/01 07:31:55;;;;;;;4.75;1.80;;;;;;;18.61;61.73;101963.06;5300497;28;20024;-68
2022/09/01 07:34:27;;;;;;;8.65;2.20;;;;;;;18.72;61.73;101965.50;5300055;28;20064;-68
2022/09/01 07:36:58;;;;;;;8.43;2.45;;;;;;;18.92;61.57;101955.47;5301469;28;20410;-68
2022/09/01 07:39:30;;;;;;;6.22;2.28;;;;;;;19.00;60.52;101958.19;5301180;28;20115;-68
2022/09/01 07:42:08;;;;;;;3.60;1.75;;;;;;;19.19;60.17;101957.94;5299086;28;20061;-68
2022/09/01 07:44:40;;;;;;;3.95;2.13;;;;;;;19.39;59.96;101958.50;5300264;28;20024;-68
2022/09/01 07:47:14;;;;;;;5.22;1.80;;;;;;;19.59;59.15;101956.44;5300943;28;20939;-68
2022/09/01 07:49:45;;;;;;;8.10;3.08;;;;;;;19.62;57.42;101957.94;5300650;28;20028;-68
2022/09/01 07:52:17;;;;;;;6.30;2.23;;;;;;;19.71;55.96;101962.28;5298825;28;20043;-68
2022/09/01 07:54:48;;;;;;;5.38;1.70;;;;;;;19.81;56.25;101954.16;5300411;28;20022;-68
2022/09/01 07:57:21;;;;;;;6.00;2.20;;;;;;;19.94;56.12;101957.19;5298751;28;20055;-68
2022/09/01 07:59:54;;;;;;;5.43;1.85;;;;;;;20.01;55.62;101960.84;5300771;28;20020;-68
2022/09/01 08:02:26;;;;;;;4.38;2.10;;;;;;;20.15;55.42;101957.53;5299733;28;20169;-68
2022/09/01 08:04:59;;;;;;;5.00;2.53;;;;;;;20.30;54.85;101963.00;5299371;28;20062;-67
2022/09/01 08:07:30;;;;;;;5.90;2.40;;;;;;;20.45;54.46;101957.00;5299352;28;20313;-68
2022/09/01 08:10:07;;;;;;;7.53;2.40;;;;;;;20.58;53.61;101962.69;5299592;28;20051;-69
2022/09/01 08:12:38;;;;;;;4.45;1.90;;;;;;;20.63;54.08;101960.34;5298003;28;20024;-67
2022/09/01 08:15:15;;;;;;;5.57;2.08;;;;;;;20.84;53.90;101960.66;5299538;28;20092;-68
2022/09/01 08:17:47;;;;;;;5.40;2.30;;;;;;;20.86;52.91;101961.28;5299598;28;20015;-68
2022/09/01 08:20:18;;;;;;;6.23;1.80;;;;;;;21.17;53.38;101957.03;5299665;28;20035;-68
2022/09/01 08:22:49;;;;;;;6.17;1.90;;;;;;;21.26;53.27;101962.16;5297363;28;20023;-68
2022/09/01 08:25:22;;;;;;;5.43;2.27;;;;;;;21.40;52.73;101962.47;5298488;28;20024;-68
2022/09/01 08:27:53;;;;;;;8.30;2.83;;;;;;;21.59;53.38;101962.88;5298616;28;20514;-68
2022/09/01 08:30:24;;;;;;;6.27;2.63;;;;;;;21.64;51.53;101962.34;5299308;28;20169;-67
2022/09/01 08:32:56;;;;;;;6.67;2.00;;;;;;;21.83;51.99;101961.88;5295652;28;20028;-69
2022/09/01 08:35:28;;;;;;;6.07;2.30;;;;;;;21.97;51.25;101954.09;5298735;28;20062;-67
2022/09/01 08:38:02;;;;;;;6.80;2.20;;;;;;;22.17;50.53;101963.34;5298490;28;20756;-68
2022/09/01 08:40:34;;;;;;;6.55;2.05;;;;;;;22.22;50.61;101958.28;5297631;28;20569;-68
2022/09/01 08:43:40;;;;;;;5.23;2.07;;;;;;;22.52;49.86;101961.03;5297794;28;20024;-68
2022/09/01 08:46:14;;;;;;;6.15;2.35;;;;;;;22.32;49.14;101963.38;5284681;28;20038;-68
2022/09/01 08:48:49;;;;;;;6.93;2.20;;;;;;;22.46;49.95;101973.25;5296098;28;20050;-69
2022/09/01 08:51:24;;;;;;;4.47;1.90;;;;;;;22.48;48.22;101963.22;5298353;28;20020;-68
2022/09/01 08:54:03;;;;;;;8.80;2.25;;;;;;;22.58;49.46;101968.31;5298094;28;20031;-67
2022/09/01 08:56:36;;;;;;;7.68;2.13;;;;;;;22.62;49.35;101958.09;5298732;28;20079;-69
2022/09/01 08:59:09;;;;;;;4.47;2.13;;;;;;;22.71;48.94;101957.81;5297833;28;20028;-68
2022/09/01 09:01:51;;;;;;;7.43;1.80;;;;;;;23.02;48.42;101959.50;5295722;28;20307;-67
2022/09/01 09:04:58;;;;;;;5.57;1.83;;;;;;;23.37;48.20;101957.06;5297111;28;20059;-69
2022/09/01 09:07:59;;;;;;;6.57;2.20;;;;;;;23.50;47.46;101954.56;5298068;28;20027;-69
2022/09/01 09:10:36;;;;;;;7.32;2.10;;;;;;;23.57;47.32;101955.47;5296877;28;21268;-69
2022/09/01 09:13:20;;;;;;;5.15;2.20;;;;;;;23.70;46.84;101947.59;5295668;28;20074;-69
2022/09/01 09:16:00;;;;;;;4.82;2.30;;;;;;;23.61;45.42;101948.72;5298249;28;20032;-68
2022/09/01 09:18:48;;;;;;;5.20;2.10;;;;;;;23.91;45.88;101946.78;5298432;28;20471;-68
2022/09/01 09:21:22;;;;;;;6.88;2.15;;;;;;;23.87;45.38;101932.13;5297374;28;20028;-68
2022/09/01 09:24:14;;;;;;;5.70;2.03;;;;;;;23.93;44.12;101938.56;5297507;28;20038;-68
2022/09/01 09:26:50;;;;;;;8.90;2.45;;;;;;;23.95;44.39;101940.03;5297308;28;20325;-68
2022/09/01 09:29:22;;;;;;;4.22;2.10;;;;;;;24.14;44.27;101937.72;5296268;28;20497;-68
2022/09/01 09:32:05;;;;;;;3.40;1.80;;;;;;;24.39;43.89;101938.97;5297925;28;20012;-68
2022/09/01 09:34:40;;;;;;;5.43;1.80;;;;;;;24.28;43.12;101934.97;5296639;28;20031;-69
2022/09/01 09:37:30;;;;;;;5.43;2.00;;;;;;;24.53;43.00;101929.19;5297386;28;20028;-70
2022/09/01 09:40:09;;;;;;;4.25;1.90;;;;;;;24.42;42.31;101929.72;5297614;28;20031;-68
2022/09/01 09:42:59;;;;;;;7.47;2.30;;;;;;;24.44;41.73;101923.16;5296884;28;20039;-69
2022/09/01 09:45:37;;;;;;;4.10;1.88;;;;;;;24.71;41.63;101931.34;5296301;28;20382;-68
2022/09/01 09:48:25;;;;;;;6.93;2.17;;;;;;;24.56;40.28;101923.44;5297651;28;20398;-69
2022/09/01 09:51:21;;;;;;;5.90;1.52;;;;;;;24.90;40.89;101916.41;5297330;28;20478;-68
2022/09/01 09:54:09;;;;;;;6.20;1.77;;;;;;;24.87;41.15;101906.91;5295416;28;20371;-67
2022/09/01 09:56:45;;;;;;;4.75;1.55;;;;;;;25.06;41.36;101915.25;5296481;28;20045;-68
2022/09/01 09:59:28;;;;;;;6.80;1.60;;;;;;;25.30;40.28;101913.91;5297531;28;20027;-68
2022/09/01 10:02:16;;;;;;;6.05;1.30;;;;;;;25.43;38.30;101904.03;5297157;28;20115;-68
2022/09/01 10:04:48;;;;;;;3.60;1.40;;;;;;;25.33;37.75;101902.78;5295043;28;20048;-68
2022/09/01 10:07:24;;;;;;;3.40;1.33;;;;;;;25.50;37.27;101905.94;5296512;28;20027;-70
2022/09/01 10:09:59;;;;;;;5.22;1.35;;;;;;;25.61;36.84;101907.97;5297182;28;20035;-68
2022/09/01 10:12:31;;;;;;;5.45;1.65;;;;;;;25.74;36.47;101899.97;5294775;28;20024;-69
2022/09/01 10:15:08;;;;;;;5.07;1.23;;;;;;;25.75;36.21;101908.84;5296138;28;20020;-68
2022/09/01 10:17:42;;;;;;;6.40;1.20;;;;;;;25.88;35.99;101893.63;5297675;28;20016;-68
2022/09/01 10:20:20;;;;;;;4.82;1.20;;;;;;;25.88;35.34;101898.97;5297225;28;20482;-68
2022/09/01 10:22:52;;;;;;;2.42;1.05;;;;;;;25.78;33.77;101895.88;5295222;28;20042;-68
2022/09/01 10:25:27;;;;;;;2.20;1.20;;;;;;;25.91;32.81;101893.22;5297220;28;20350;-68
2022/09/01 10:28:04;;;;;;;2.92;1.00;;;;;;;25.85;32.56;101899.38;5297578;28;20494;-68
2022/09/01 10:30:41;;;;;;;4.93;0.98;;;;;;;25.82;32.79;101907.03;5295282;28;20031;-69
2022/09/01 10:33:15;;;;;;;4.22;1.00;;;;;;;25.70;32.67;101901.41;5294367;28;20063;-68
2022/09/01 10:35:54;;;;;;;3.53;1.00;;;;;;;26.08;32.84;101890.91;5296451;28;20024;-68
2022/09/01 10:38:27;;;;;;;5.65;1.10;;;;;;;26.00;31.72;101895.69;5295937;28;20024;-68
2022/09/01 10:41:09;;;;;;;4.75;1.33;;;;;;;26.04;32.00;101902.28;5296788;28;20039;-69
2022/09/01 10:43:47;;;;;;;4.63;1.23;;;;;;;26.11;32.39;101908.50;5291585;28;20081;-68
2022/09/01 10:46:18;;;;;;;3.80;1.10;;;;;;;25.95;32.32;101894.44;5295951;28;20090;-69
2022/09/01 10:48:55;;;;;;;4.40;0.97;;;;;;;26.00;31.69;101895.69;5294500;28;20128;-68
2022/09/01 10:51:26;;;;;;;3.38;1.10;;;;;;;26.26;31.66;101900.22;5296322;28;20020;-69
2022/09/01 10:53:59;;;;;;;6.73;1.20;;;;;;;26.34;31.66;101903.50;5295086;28;20036;-68
2022/09/01 10:56:42;;;;;;;;;;;;;;;26.99;30.87;101902.72;5297855;28;20498;-71
2022/09/01 10:59:28;;;;;;;2.15;1.30;;;;;;;26.54;31.56;101891.91;5299927;28;20379;-68
2022/09/01 11:02:07;;;;;;;4.47;1.10;;;;;;;26.50;31.19;101896.06;5299469;28;20580;-70
2022/09/01 11:04:41;;;;;;;4.07;1.10;;;;;;;26.40;30.77;101893.75;5280860;28;20375;-69
2022/09/01 11:07:32;;;;;;;2.05;0.90;;;;;;;26.32;31.43;101902.88;5300978;28;20036;-69
2022/09/01 11:10:19;;;;;;;6.88;1.10;;;;;;;26.32;30.58;101888.63;5300594;28;20451;-69
2022/09/01 11:13:18;;;;;;;5.22;1.20;;;;;;;26.64;31.20;101887.75;5296385;28;20042;-68
2022/09/01 11:15:50;;;;;;;4.15;1.00;;;;;;;26.44;30.75;101887.78;5300962;28;20012;-70
2022/09/01 11:18:28;;;;;;;1.70;0.90;;;;;;;26.71;30.71;101882.38;5300710;28;20085;-68
2022/09/01 11:21:26;;;;;;;2.53;1.05;;;;;;;26.80;30.10;101878.38;5300370;28;20020;-69
2022/09/01 11:24:35;;;;;;;5.20;1.55;;;;;;;27.02;30.60;101884.31;5299452;28;20035;-68
2022/09/01 11:27:10;;;;;;;2.97;1.17;;;;;;;26.84;29.92;101873.41;5300347;28;20099;-68
2022/09/01 11:29:57;;;;;;;3.65;1.10;;;;;;;27.14;30.03;101873.72;5282011;28;20020;-70
2022/09/01 11:32:35;;;;;;;3.30;1.17;;;;;;;27.09;29.83;101865.44;5299309;28;20032;-69
2022/09/01 11:35:17;;;;;;;3.00;0.90;;;;;;;27.08;29.52;101878.03;5298990;28;20063;-71
2022/09/01 11:37:50;;;;;;;3.67;1.38;;;;;;;26.82;29.31;101862.88;5299350;28;20107;-71
2022/09/01 11:40:35;;;;;;;3.55;1.13;;;;;;;27.28;30.42;101853.78;5297677;28;20724;-70
2022/09/01 11:43:12;;;;;;;3.40;1.25;;;;;;;27.24;29.47;101857.94;5297954;28;20367;-69
2022/09/01 11:45:55;;;;;;;5.82;1.50;;;;;;;27.51;29.68;101861.28;5299726;28;20054;-70
2022/09/01 11:48:29;;;;;;;4.00;1.35;;;;;;;27.14;29.11;101862.97;5298531;28;20487;-69
2022/09/01 11:51:02;;;;;;;3.03;1.10;;;;;;;27.52;29.18;101851.34;5299317;28;20397;-69
2022/09/01 11:53:34;;;;;;;3.97;1.02;;;;;;;27.32;29.39;101856.84;5299651;28;20024;-69
2022/09/01 11:56:24;;;;;;;3.30;1.20;;;;;;;27.69;29.00;101849.72;5299493;28;20020;-69
2022/09/01 11:58:55;;;;;;;3.55;1.00;;;;;;;27.42;27.64;101849.94;5298731;28;20055;-69
2022/09/01 12:01:29;;;;;;;4.53;1.07;;;;;;;27.17;27.20;101851.78;5298074;28;20470;-70
2022/09/01 12:04:26;;;;;;;3.45;1.10;;;;;;;27.67;28.33;101843.75;5298594;28;20471;-69
2022/09/01 12:07:07;;;;;;;4.00;1.10;;;;;;;27.55;27.50;101834.75;5299517;28;20016;-69
2022/09/01 12:09:42;;;;;;;3.75;1.00;;;;;;;27.37;27.12;101833.63;5298322;28;20112;-69